Time;durP1;ratioP1;P1;durP2;ratioP2;P2;SDS_P1;SDS_P2;PMS_P1;PMS_P2;Temp;Humidity;BMP_temperature;BMP_pressure;BME280_temperature;BME280_humidity;BME280_pressure;Samples;Min_cycle;Max_cycle;Signal;HPM_P1;HPM_P2
2023/06/01 00:00:20;;;;;;;18.87;8.53;;;;;;;;;;5077672;28;20784;-71
2023/06/01 00:02:57;;;;;;;15.33;8.70;;;;;;;;;;5082435;28;20453;-71
2023/06/01 00:05:25;;;;;;;16.77;9.00;;;;;;;;;;5078586;28;20464;-71
2023/06/01 00:07:56;;;;;;;15.23;9.13;;;;;;;;;;5082347;28;20579;-70
2023/06/01 00:10:23;;;;;;;14.27;8.63;;;;;;;;;;5078834;28;20460;-72
2023/06/01 00:12:52;;;;;;;21.43;10.70;;;;;;;;;;5076153;28;20465;-70
2023/06/01 00:15:21;;;;;;;19.40;11.07;;;;;;;;;;5068212;28;20466;-70
2023/06/01 00:17:51;;;;;;;20.03;10.23;;;;;;;;;;5060448;28;20461;-70
2023/06/01 00:20:18;;;;;;;14.80;9.50;;;;;;;;;;5071612;28;20465;-72
2023/06/01 00:23:08;;;;;;;16.27;11.13;;;;;;;;;;5078586;28;20457;-71
2023/06/01 00:25:36;;;;;;;15.00;9.20;;;;;;;;;;5080032;28;20463;-70
2023/06/01 00:28:04;;;;;;;20.40;9.30;;;;;;;;;;5083921;28;20477;-71
2023/06/01 00:30:41;;;;;;;18.43;9.13;;;;;;;;;;5078116;28;20464;-72
2023/06/01 00:33:09;;;;;;;13.10;9.03;;;;;;;;;;5082048;28;20459;-72
2023/06/01 00:35:36;;;;;;;20.10;13.20;;;;;;;;;;5084622;28;20744;-71
2023/06/01 00:38:07;;;;;;;20.77;12.50;;;;;;;;;;5082991;28;20473;-72
2023/06/01 00:40:35;;;;;;;20.87;12.43;;;;;;;;;;5082293;28;20810;-72
2023/06/01 00:43:02;;;;;;;14.60;12.03;;;;;;;;;;5080192;28;20468;-72
2023/06/01 00:45:30;;;;;;;18.93;10.23;;;;;;;;;;5081171;28;20537;-72
2023/06/01 00:47:59;;;;;;;13.53;9.10;;;;;;;;;;5081052;28;20480;-70
2023/06/01 00:50:33;;;;;;;17.67;8.40;;;;;;;;;;5081025;28;20461;-72
2023/06/01 00:53:03;;;;;;;23.30;8.13;;;;;;;;;;5080744;28;20456;-71
2023/06/01 00:55:40;;;;;;;16.93;8.03;;;;;;;;;;5080904;28;20532;-71
2023/06/01 00:58:08;;;;;;;19.13;9.10;;;;;;;;;;5079581;28;20514;-71
2023/06/01 01:00:37;;;;;;;13.80;8.53;;;;;;;;;;5082554;28;20492;-72
2023/06/01 01:03:09;;;;;;;13.30;7.00;;;;;;;;;;5080852;28;20465;-72
2023/06/01 01:05:43;;;;;;;15.37;7.03;;;;;;;;;;5080476;28;20495;-71
2023/06/01 01:08:15;;;;;;;16.47;7.83;;;;;;;;;;5080922;28;20611;-71
2023/06/01 01:10:47;;;;;;;12.17;7.10;;;;;;;;;;5082144;28;20457;-71
2023/06/01 01:13:18;;;;;;;15.53;7.93;;;;;;;;;;5079817;28;20531;-72
2023/06/01 01:15:50;;;;;;;15.40;6.77;;;;;;;;;;5078369;28;20449;-72
2023/06/01 01:18:23;;;;;;;13.37;6.63;;;;;;;;;;5079377;28;20490;-72
2023/06/01 01:21:00;;;;;;;13.33;6.10;;;;;;;;;;5080201;28;20823;-72
2023/06/01 01:23:51;;;;;;;14.43;7.63;;;;;;;;;;5080044;28;20883;-72
2023/06/01 01:26:25;;;;;;;10.80;6.40;;;;;;;;;;5066012;28;20472;-72
2023/06/01 01:28:55;;;;;;;12.30;6.67;;;;;;;;;;5080505;28;20480;-72
2023/06/01 01:31:25;;;;;;;10.17;5.33;;;;;;;;;;5080825;28;20477;-71
2023/06/01 01:33:55;;;;;;;14.50;6.30;;;;;;;;;;5081435;28;20520;-72
2023/06/01 01:36:23;;;;;;;12.53;6.30;;;;;;;;;;5079354;28;20457;-72
2023/06/01 01:38:52;;;;;;;13.13;6.43;;;;;;;;;;5079012;28;20702;-72
2023/06/01 01:41:20;;;;;;;9.93;5.30;;;;;;;;;;5080190;28;20526;-71
2023/06/01 01:43:50;;;;;;;16.43;4.80;;;;;;;;;;5077390;28;20464;-72
2023/06/01 01:46:26;;;;;;;15.10;6.37;;;;;;;;;;5080415;28;20572;-73
2023/06/01 01:48:56;;;;;;;15.00;8.30;;;;;;;;;;5080995;28;20484;-72
2023/06/01 01:51:30;;;;;;;16.43;6.57;;;;;;;;;;5082385;28;20449;-71
2023/06/01 01:53:58;;;;;;;10.20;5.27;;;;;;;;;;5081267;28;20530;-72
2023/06/01 01:56:36;;;;;;;8.23;5.23;;;;;;;;;;5081826;28;20464;-72
2023/06/01 01:59:14;;;;;;;11.20;5.70;;;;;;;;;;5082389;28;20868;-71
2023/06/01 02:01:44;;;;;;;13.37;4.50;;;;;;;;;;5082571;28;20457;-71
2023/06/01 02:04:14;;;;;;;9.00;4.77;;;;;;;;;;5082716;28;20457;-72
2023/06/01 02:06:46;;;;;;;10.60;4.00;;;;;;;;;;5080613;28;20467;-71
2023/06/01 02:09:14;;;;;;;15.73;5.97;;;;;;;;;;5081264;28;20516;-71
2023/06/01 02:11:43;;;;;;;9.17;5.70;;;;;;;;;;5081570;28;20948;-72
2023/06/01 02:14:11;;;;;;;7.57;4.43;;;;;;;;;;5080261;28;20463;-70
2023/06/01 02:16:38;;;;;;;11.07;4.60;;;;;;;;;;5082209;28;20541;-71
2023/06/01 02:19:10;;;;;;;9.90;4.30;;;;;;;;;;5077014;28;20473;-72
2023/06/01 02:21:38;;;;;;;11.10;5.50;;;;;;;;;;5079872;28;20457;-71
2023/06/01 02:24:07;;;;;;;20.27;7.53;;;;;;;;;;5078022;28;20449;-72
2023/06/01 02:26:37;;;;;;;11.47;5.27;;;;;;;;;;5079008;28;20471;-72
2023/06/01 02:29:05;;;;;;;9.40;4.83;;;;;;;;;;5078544;28;20561;-72
2023/06/01 02:31:39;;;;;;;14.63;5.47;;;;;;;;;;5104075;28;20593;-72
2023/06/01 02:34:08;;;;;;;11.63;5.10;;;;;;;;;;5118995;28;20541;-72
2023/06/01 02:36:35;;;;;;;8.90;4.50;;;;;;;;;;5117407;28;20463;-72
2023/06/01 02:39:03;;;;;;;9.63;4.13;;;;;;;;;;5117744;28;20455;-72
2023/06/01 02:44:34;;;;;;;10.53;4.03;;;;;;;;;;5060549;28;20408;-84
2023/06/01 02:47:01;;;;;;;6.40;4.37;;;;;;;;;;5061547;28;20461;-82
2023/06/01 02:49:29;;;;;;;12.80;5.97;;;;;;;;;;5059946;28;20520;-81
2023/06/01 02:51:57;;;;;;;8.30;5.20;;;;;;;;;;5061286;28;20452;-83
2023/06/01 02:54:24;;;;;;;12.87;5.80;;;;;;;;;;5062007;28;20838;-83
2023/06/01 02:56:52;;;;;;;8.27;4.50;;;;;;;;;;5062364;28;20524;-82
2023/06/01 02:59:19;;;;;;;9.20;5.13;;;;;;;;;;5061480;28;20485;-81
2023/06/01 03:01:46;;;;;;;15.37;6.43;;;;;;;;;;5060879;28;20458;-81
2023/06/01 03:04:14;;;;;;;11.60;5.23;;;;;;;;;;5060812;28;20458;-80
2023/06/01 03:06:45;;;;;;;6.20;4.17;;;;;;;;;;5060928;28;20465;-82
2023/06/01 03:09:14;;;;;;;12.53;4.50;;;;;;;;;;5060763;28;20563;-82
2023/06/01 03:11:42;;;;;;;12.50;3.83;;;;;;;;;;5062461;28;20457;-82
2023/06/01 03:14:09;;;;;;;6.63;3.67;;;;;;;;;;5059669;28;20888;-82
2023/06/01 03:16:37;;;;;;;10.60;4.47;;;;;;;;;;5061480;28;20772;-83
2023/06/01 03:19:05;;;;;;;7.83;4.20;;;;;;;;;;5061722;28;20446;-83
2023/06/01 03:21:32;;;;;;;9.03;4.03;;;;;;;;;;5059086;28;20483;-82
2023/06/01 03:24:01;;;;;;;6.87;3.93;;;;;;;;;;5063524;28;20449;-82
2023/06/01 03:26:29;;;;;;;7.90;3.80;;;;;;;;;;5059106;28;20458;-81
2023/06/01 03:28:58;;;;;;;8.93;4.23;;;;;;;;;;5064755;28;20553;-80
2023/06/01 03:31:26;;;;;;;6.20;3.33;;;;;;;;;;5060012;28;20460;-82
2023/06/01 03:33:54;;;;;;;9.50;5.03;;;;;;;;;;5060704;28;20530;-82
2023/06/01 03:36:22;;;;;;;11.33;3.80;;;;;;;;;;5058550;28;20767;-81
2023/06/01 03:38:49;;;;;;;5.80;3.50;;;;;;;;;;5059613;28;20453;-82
2023/06/01 03:41:18;;;;;;;17.53;4.77;;;;;;;;;;5061137;28;20816;-82
2023/06/01 03:43:45;;;;;;;10.40;4.07;;;;;;;;;;5059217;28;20885;-80
2023/06/01 03:46:13;;;;;;;9.77;4.03;;;;;;;;;;5060674;28;20452;-81
2023/06/01 03:48:40;;;;;;;6.27;3.93;;;;;;;;;;5060546;28;20921;-79
2023/06/01 03:51:10;;;;;;;8.70;4.23;;;;;;;;;;5063393;28;20528;-82
2023/06/01 03:53:37;;;;;;;9.83;5.13;;;;;;;;;;5061838;28;20465;-81
2023/06/01 03:56:05;;;;;;;10.63;3.80;;;;;;;;;;5061741;28;20469;-83
2023/06/01 03:58:33;;;;;;;9.80;4.57;;;;;;;;;;5061136;28;20454;-80
2023/06/01 04:01:03;;;;;;;16.87;5.53;;;;;;;;;;5056475;28;20541;-80
2023/06/01 04:03:30;;;;;;;12.93;4.13;;;;;;;;;;5063485;28;20700;-82
2023/06/01 04:05:59;;;;;;;12.33;3.77;;;;;;;;;;5059732;28;20458;-82
2023/06/01 04:08:27;;;;;;;10.63;3.43;;;;;;;;;;5063190;28;20489;-79
2023/06/01 04:10:56;;;;;;;10.73;3.80;;;;;;;;;;5058088;28;20464;-82
2023/06/01 04:13:24;;;;;;;15.60;3.53;;;;;;;;;;5059266;28;20461;-80
2023/06/01 04:15:53;;;;;;;8.13;3.90;;;;;;;;;;5060723;28;20449;-80
2023/06/01 04:18:20;;;;;;;9.33;3.70;;;;;;;;;;5059132;28;20450;-81
2023/06/01 04:20:48;;;;;;;13.57;4.17;;;;;;;;;;5061468;28;20450;-82
2023/06/01 04:23:16;;;;;;;8.33;4.10;;;;;;;;;;5058495;28;20796;-82
2023/06/01 04:25:44;;;;;;;12.93;5.10;;;;;;;;;;5057058;28;20461;-80
2023/06/01 04:28:14;;;;;;;11.50;3.47;;;;;;;;;;5058448;28;20496;-81
2023/06/01 04:30:44;;;;;;;8.97;3.90;;;;;;;;;;5056664;28;20457;-81
2023/06/01 04:33:12;;;;;;;16.87;4.67;;;;;;;;;;5057724;28;20453;-82
2023/06/01 04:35:40;;;;;;;11.30;3.87;;;;;;;;;;5055910;28;20464;-81
2023/06/01 04:38:11;;;;;;;7.87;3.70;;;;;;;;;;5058722;28;20696;-81
2023/06/01 04:40:39;;;;;;;10.50;3.60;;;;;;;;;;5056137;28;20496;-81
2023/06/01 04:43:07;;;;;;;6.37;3.90;;;;;;;;;;5055404;28;20485;-82
2023/06/01 04:45:34;;;;;;;8.00;3.80;;;;;;;;;;5060362;28;20496;-83
2023/06/01 04:48:03;;;;;;;7.37;3.73;;;;;;;;;;5060700;28;20462;-81
2023/06/01 04:50:31;;;;;;;9.67;3.20;;;;;;;;;;5062438;28;20865;-83
2023/06/01 04:52:59;;;;;;;11.30;3.30;;;;;;;;;;5058595;28;20899;-82
2023/06/01 04:55:26;;;;;;;5.83;4.13;;;;;;;;;;5061804;28;20438;-82
2023/06/01 04:57:54;;;;;;;10.47;4.33;;;;;;;;;;5059011;28;20481;-83
2023/06/01 05:00:22;;;;;;;9.53;4.10;;;;;;;;;;5056937;28;20465;-81
2023/06/01 05:02:50;;;;;;;9.30;3.93;;;;;;;;;;5056163;28;20458;-82
2023/06/01 05:05:20;;;;;;;7.30;3.23;;;;;;;;;;5060609;28;20505;-82
2023/06/01 05:07:49;;;;;;;9.47;4.00;;;;;;;;;;5055950;28;20489;-82
2023/06/01 05:10:18;;;;;;;8.63;3.03;;;;;;;;;;5057670;28;20944;-81
2023/06/01 05:12:45;;;;;;;16.43;4.37;;;;;;;;;;5054929;28;20449;-81
2023/06/01 05:15:13;;;;;;;15.60;4.60;;;;;;;;;;5059814;28;20517;-81
2023/06/01 05:17:41;;;;;;;7.40;3.57;;;;;;;;;;5054767;28;20461;-81
2023/06/01 05:20:11;;;;;;;8.80;3.63;;;;;;;;;;5058800;28;20458;-82
2023/06/01 05:22:38;;;;;;;10.80;3.87;;;;;;;;;;5058648;28;20449;-83
2023/06/01 05:25:07;;;;;;;6.23;3.13;;;;;;;;;;5054244;28;20790;-81
2023/06/01 05:27:35;;;;;;;14.43;3.93;;;;;;;;;;5057400;28;20470;-81
2023/06/01 05:30:05;;;;;;;8.07;3.70;;;;;;;;;;5052606;28;20489;-79
2023/06/01 05:32:33;;;;;;;6.60;3.57;;;;;;;;;;5059201;28;21116;-81
2023/06/01 05:35:00;;;;;;;9.97;3.77;;;;;;;;;;5057596;28;20450;-81
2023/06/01 05:37:27;;;;;;;9.40;3.43;;;;;;;;;;5055458;28;20458;-80
2023/06/01 05:39:55;;;;;;;8.37;4.13;;;;;;;;;;5056708;28;20442;-80
2023/06/01 05:42:24;;;;;;;7.23;3.80;;;;;;;;;;5057149;28;20489;-82
2023/06/01 05:44:51;;;;;;;25.33;4.63;;;;;;;;;;5058309;28;20481;-82
2023/06/01 05:47:18;;;;;;;10.73;3.87;;;;;;;;;;5061077;28;20442;-82
2023/06/01 05:49:46;;;;;;;9.17;3.77;;;;;;;;;;5060211;28;20711;-81
2023/06/01 05:52:14;;;;;;;8.23;3.93;;;;;;;;;;5061749;28;20516;-83
2023/06/01 05:54:42;;;;;;;7.83;3.87;;;;;;;;;;5062073;28;20473;-80
2023/06/01 05:57:12;;;;;;;8.53;3.53;;;;;;;;;;5059875;28;20449;-81
2023/06/01 05:59:42;;;;;;;10.10;3.60;;;;;;;;;;5055385;28;20785;-83
2023/06/01 06:02:09;;;;;;;7.20;2.67;;;;;;;;;;5053364;28;20792;-81
2023/06/01 06:04:37;;;;;;;9.67;3.23;;;;;;;;;;5057890;28;20450;-82
2023/06/01 06:07:05;;;;;;;13.63;4.33;;;;;;;;;;5044756;28;20487;-80
2023/06/01 06:09:33;;;;;;;8.00;3.70;;;;;;;;;;5045507;28;20508;-81
2023/06/01 06:12:01;;;;;;;7.57;3.23;;;;;;;;;;5057856;28;20489;-80
2023/06/01 06:14:29;;;;;;;8.60;3.10;;;;;;;;;;5056133;28;20567;-79
2023/06/01 06:17:06;;;;;;;6.47;3.40;;;;;;;;;;5054744;28;21021;-80
2023/06/01 06:19:34;;;;;;;9.10;3.73;;;;;;;;;;5054207;28;20457;-80
2023/06/01 06:22:01;;;;;;;6.30;3.13;;;;;;;;;;5058842;28;20457;-80
2023/06/01 06:24:29;;;;;;;7.50;3.30;;;;;;;;;;5057544;28;20480;-82
2023/06/01 06:27:03;;;;;;;7.73;2.63;;;;;;;;;;5044373;28;20765;-80
2023/06/01 06:29:31;;;;;;;7.33;2.97;;;;;;;;;;5035446;28;20551;-80
2023/06/01 06:31:59;;;;;;;10.20;2.90;;;;;;;;;;5047598;28;20449;-82
2023/06/01 06:34:33;;;;;;;8.70;3.30;;;;;;;;;;5055708;28;20466;-81
2023/06/01 06:37:04;;;;;;;7.00;3.17;;;;;;;;;;5053933;28;20460;-79
2023/06/01 06:39:31;;;;;;;9.87;3.03;;;;;;;;;;5048097;28;20458;-81
2023/06/01 06:42:00;;;;;;;13.80;4.90;;;;;;;;;;5031972;28;20475;-81
2023/06/01 06:44:28;;;;;;;5.50;2.90;;;;;;;;;;5032620;28;20459;-80
2023/06/01 06:47:03;;;;;;;8.13;4.00;;;;;;;;;;5046100;28;20469;-80
2023/06/01 06:49:34;;;;;;;12.00;3.80;;;;;;;;;;5054062;28;20544;-81
2023/06/01 06:52:02;;;;;;;13.80;3.87;;;;;;;;;;5057052;28;20466;-83
2023/06/01 06:54:29;;;;;;;6.60;3.37;;;;;;;;;;5059352;28;20479;-81
2023/06/01 06:57:07;;;;;;;8.53;3.73;;;;;;;;;;5056939;28;20476;-81
2023/06/01 06:59:36;;;;;;;11.30;3.07;;;;;;;;;;5058200;28;20804;-80
2023/06/01 07:02:04;;;;;;;7.27;3.37;;;;;;;;;;5058085;28;20520;-80
2023/06/01 07:04:32;;;;;;;7.73;3.83;;;;;;;;;;5059391;28;20434;-81
2023/06/01 07:07:04;;;;;;;7.10;3.60;;;;;;;;;;5059919;28;20465;-80
2023/06/01 07:09:31;;;;;;;9.90;2.80;;;;;;;;;;5059861;28;20478;-80
2023/06/01 07:11:59;;;;;;;6.40;2.90;;;;;;;;;;5063861;28;20450;-81
2023/06/01 07:14:34;;;;;;;7.80;3.20;;;;;;;;;;5059406;28;20910;-80
2023/06/01 07:17:02;;;;;;;10.40;4.70;;;;;;;;;;5060539;28;20532;-81
2023/06/01 07:19:32;;;;;;;8.70;3.10;;;;;;;;;;5059499;28;20568;-79
2023/06/01 07:22:05;;;;;;;4.70;3.00;;;;;;;;;;5054414;28;20482;-80
2023/06/01 07:24:32;;;;;;;6.73;3.37;;;;;;;;;;5058590;28;20481;-80
2023/06/01 07:27:05;;;;;;;10.50;3.60;;;;;;;;;;5058373;28;20606;-82
2023/06/01 07:29:32;;;;;;;6.30;2.77;;;;;;;;;;5060995;28;20878;-79
2023/06/01 07:31:59;;;;;;;4.57;2.77;;;;;;;;;;5053759;28;20458;-80
2023/06/01 07:34:28;;;;;;;7.37;3.80;;;;;;;;;;5062201;28;20485;-82
2023/06/01 07:37:04;;;;;;;8.63;3.20;;;;;;;;;;5060723;28;20449;-81
2023/06/01 07:39:35;;;;;;;6.17;3.10;;;;;;;;;;5072729;28;20513;-79
2023/06/01 07:42:03;;;;;;;7.13;3.07;;;;;;;;;;5067531;28;20465;-79
2023/06/01 07:44:38;;;;;;;7.70;2.57;;;;;;;;;;5065581;28;20460;-80
2023/06/01 07:47:06;;;;;;;4.63;2.53;;;;;;;;;;5055930;28;20456;-81
2023/06/01 07:49:35;;;;;;;4.13;2.60;;;;;;;;;;5081549;28;20469;-81
2023/06/01 07:52:03;;;;;;;7.33;3.50;;;;;;;;;;5080036;28;20503;-81
2023/06/01 07:54:31;;;;;;;11.17;2.80;;;;;;;;;;5066487;28;20446;-79
2023/06/01 07:57:06;;;;;;;8.13;2.90;;;;;;;;;;5066504;28;20897;-82
2023/06/01 07:59:34;;;;;;;7.47;2.87;;;;;;;;;;5041360;28;20464;-80
2023/06/01 08:02:01;;;;;;;10.47;3.43;;;;;;;;;;5045578;28;20449;-79
2023/06/01 08:04:33;;;;;;;6.30;2.70;;;;;;;;;;5068560;28;20457;-82
2023/06/01 08:07:04;;;;;;;10.73;4.07;;;;;;;;;;5068102;28;20520;-80
2023/06/01 08:09:32;;;;;;;10.20;3.00;;;;;;;;;;5062420;28;20478;-78
2023/06/01 08:11:59;;;;;;;6.43;2.43;;;;;;;;;;5062995;28;20476;-82
2023/06/01 08:14:32;;;;;;;12.00;3.27;;;;;;;;;;5065890;28;20465;-78
2023/06/01 08:17:06;;;;;;;5.63;2.60;;;;;;;;;;5069863;28;20464;-80
2023/06/01 08:19:34;;;;;;;7.10;2.67;;;;;;;;;;5062128;28;20848;-80
2023/06/01 08:22:05;;;;;;;12.30;3.53;;;;;;;;;;5070370;28;20533;-82
2023/06/01 08:24:34;;;;;;;10.10;3.30;;;;;;;;;;5065697;28;20475;-81
2023/06/01 08:27:05;;;;;;;6.20;2.50;;;;;;;;;;5069094;28;20434;-80
2023/06/01 08:29:33;;;;;;;7.20;3.40;;;;;;;;;;5055184;28;20477;-79
2023/06/01 08:32:01;;;;;;;6.97;2.90;;;;;;;;;;5065163;28;20472;-81
2023/06/01 08:34:30;;;;;;;6.10;2.57;;;;;;;;;;5064609;28;20457;-79
2023/06/01 08:37:03;;;;;;;13.33;5.33;;;;;;;;;;5065179;28;20515;-80
2023/06/01 08:39:31;;;;;;;15.50;3.00;;;;;;;;;;5047289;28;20462;-81
2023/06/01 08:42:06;;;;;;;13.00;2.67;;;;;;;;;;5040543;28;20513;-82
2023/06/01 08:44:37;;;;;;;4.93;1.93;;;;;;;;;;5069011;28;21091;-79
2023/06/01 08:47:14;;;;;;;8.17;2.53;;;;;;;;;;5073335;28;20488;-80
2023/06/01 08:49:49;;;;;;;5.60;2.30;;;;;;;;;;5057147;28;20977;-80
2023/06/01 08:52:21;;;;;;;7.13;2.90;;;;;;;;;;5067146;28;20465;-80
2023/06/01 08:54:49;;;;;;;9.03;2.90;;;;;;;;;;5053126;28;20524;-79
2023/06/01 08:57:19;;;;;;;6.43;1.90;;;;;;;;;;5049440;28;20466;-82
2023/06/01 08:59:49;;;;;;;6.57;2.63;;;;;;;;;;5051260;28;20450;-78
2023/06/01 09:02:20;;;;;;;10.70;3.00;;;;;;;;;;5064474;28;20694;-79
2023/06/01 09:04:52;;;;;;;6.27;2.80;;;;;;;;;;5067639;28;20461;-79
2023/06/01 09:07:24;;;;;;;15.60;3.47;;;;;;;;;;5060077;28;20461;-80
2023/06/01 09:09:52;;;;;;;20.10;5.27;;;;;;;;;;5066864;28;20469;-79
2023/06/01 09:12:21;;;;;;;8.37;3.67;;;;;;;;;;5060386;28;20520;-84
2023/06/01 09:14:51;;;;;;;6.17;3.23;;;;;;;;;;5045323;28;20880;-79
2023/06/01 09:17:25;;;;;;;5.10;2.70;;;;;;;;;;5058707;28;20481;-79
2023/06/01 09:20:00;;;;;;;10.93;3.00;;;;;;;;;;5064219;28;20472;-81
2023/06/01 09:22:39;;;;;;;5.80;2.13;;;;;;;;;;5068508;28;20457;-81
2023/06/01 09:25:08;;;;;;;7.10;2.17;;;;;;;;;;5064242;28;20654;-81
2023/06/01 09:27:45;;;;;;;7.93;2.70;;;;;;;;;;5060066;28;20461;-81
2023/06/01 09:30:19;;;;;;;3.33;1.87;;;;;;;;;;5062147;28;20512;-79
2023/06/01 09:32:50;;;;;;;6.10;2.00;;;;;;;;;;5055247;28;20791;-80
2023/06/01 09:35:38;;;;;;;12.23;3.23;;;;;;;;;;5062299;28;20493;-79
2023/06/01 09:38:06;;;;;;;8.23;2.90;;;;;;;;;;5061498;28;20565;-81
2023/06/01 09:40:34;;;;;;;9.27;2.50;;;;;;;;;;5062674;28;20466;-81
2023/06/01 09:43:02;;;;;;;12.37;2.90;;;;;;;;;;5056781;28;20489;-81
2023/06/01 09:45:32;;;;;;;9.97;2.30;;;;;;;;;;5060223;28;20552;-80
2023/06/01 09:48:18;;;;;;;7.30;2.87;;;;;;;;;;5058470;28;21175;-80
2023/06/01 09:50:46;;;;;;;9.20;2.80;;;;;;;;;;5060257;28;21049;-81
2023/06/01 09:53:17;;;;;;;7.20;2.37;;;;;;;;;;5059629;28;20470;-78
2023/06/01 09:56:03;;;;;;;7.80;3.63;;;;;;;;;;5055367;28;20455;-80
2023/06/01 09:58:34;;;;;;;6.50;3.20;;;;;;;;;;5048207;28;20562;-80
2023/06/01 10:01:07;;;;;;;8.20;3.37;;;;;;;;;;5057877;28;20764;-81
2023/06/01 10:03:39;;;;;;;8.83;2.10;;;;;;;;;;5060938;28;20452;-80
2023/06/01 10:06:07;;;;;;;7.10;2.57;;;;;;;;;;5060188;28;20913;-82
2023/06/01 10:08:38;;;;;;;8.37;2.60;;;;;;;;;;5054906;28;20462;-81
2023/06/01 10:11:07;;;;;;;13.00;4.87;;;;;;;;;;5061460;28;20527;-80
2023/06/01 10:13:41;;;;;;;3.30;1.83;;;;;;;;;;5058534;28;20468;-82
2023/06/01 10:16:14;;;;;;;12.33;4.23;;;;;;;;;;5064040;28;20522;-81
2023/06/01 10:18:42;;;;;;;6.83;2.63;;;;;;;;;;5057491;28;20466;-81
2023/06/01 10:21:10;;;;;;;4.80;2.50;;;;;;;;;;5059913;28;20508;-81
2023/06/01 10:23:38;;;;;;;9.80;3.93;;;;;;;;;;5039348;28;20490;-81
2023/06/01 10:26:09;;;;;;;8.07;2.57;;;;;;;;;;5038568;28;20465;-81
2023/06/01 10:28:38;;;;;;;5.33;2.83;;;;;;;;;;5039623;28;20876;-82
2023/06/01 10:31:24;;;;;;;5.50;2.17;;;;;;;;;;5041759;28;20487;-82
2023/06/01 10:33:57;;;;;;;7.53;3.00;;;;;;;;;;5026361;28;20550;-82
2023/06/01 10:36:26;;;;;;;6.10;1.87;;;;;;;;;;5019002;28;20856;-80
2023/06/01 10:39:23;;;;;;;7.40;2.60;;;;;;;;;;5020644;28;20455;-81
2023/06/01 10:41:51;;;;;;;4.50;1.93;;;;;;;;;;5031535;28;20574;-81
2023/06/01 10:44:33;;;;;;;3.13;1.83;;;;;;;;;;5031452;28;20542;-83
2023/06/01 10:47:04;;;;;;;11.80;3.60;;;;;;;;;;5024281;28;20934;-81
2023/06/01 10:52:55;;;;;;;8.30;1.80;;;;;;;;;;5021089;28;21152;-80
2023/06/01 10:55:24;;;;;;;4.67;2.27;;;;;;;;;;5027917;28;20549;-81
2023/06/01 10:57:52;;;;;;;7.70;1.80;;;;;;;;;;5033564;28;20478;-80
2023/06/01 11:00:22;;;;;;;5.80;2.83;;;;;;;;;;5042266;28;20454;-81
2023/06/01 11:02:52;;;;;;;5.23;2.40;;;;;;;;;;5033566;28;20778;-82
2023/06/01 11:05:36;;;;;;;4.77;2.10;;;;;;;;;;5042403;28;20473;-82
2023/06/01 11:11:24;;;;;;;5.70;2.00;;;;;;;;;;5024074;28;20567;-80
2023/06/01 11:14:10;;;;;;;7.60;1.97;;;;;;;;;;5026519;28;20478;-79
2023/06/01 11:16:38;;;;;;;9.03;1.90;;;;;;;;;;5019472;28;20444;-80
2023/06/01 11:19:06;;;;;;;7.20;2.17;;;;;;;;;;5022606;28;20458;-81
2023/06/01 11:21:36;;;;;;;5.03;1.93;;;;;;;;;;5043754;28;20485;-82
2023/06/01 11:24:13;;;;;;;8.63;2.30;;;;;;;;;;5032923;28;20450;-83
2023/06/01 11:26:41;;;;;;;5.43;2.30;;;;;;;;;;5030539;28;20546;-82
2023/06/01 11:29:32;;;;;;;8.93;2.77;;;;;;;;;;5041185;28;20542;-83
2023/06/01 11:32:03;;;;;;;5.57;2.40;;;;;;;;;;5036215;28;20483;-82
2023/06/01 11:34:34;;;;;;;7.80;2.73;;;;;;;;;;5028263;28;20474;-82
2023/06/01 11:37:02;;;;;;;9.90;2.97;;;;;;;;;;5021117;28;20458;-80
2023/06/01 11:39:30;;;;;;;6.97;2.80;;;;;;;;;;5039999;28;20471;-82
2023/06/01 11:42:07;;;;;;;9.80;2.40;;;;;;;;;;5039854;28;20494;-82
2023/06/01 11:44:35;;;;;;;8.57;2.93;;;;;;;;;;5032433;28;20462;-80
2023/06/01 11:50:07;;;;;;;15.43;3.13;;;;;;;;;;5014663;28;20742;-81
2023/06/01 11:52:35;;;;;;;8.00;2.63;;;;;;;;;;5039734;28;20480;-80
2023/06/01 12:00:59;;;;;;;6.50;2.37;;;;;;;;;;5020783;28;20467;-80
2023/06/01 12:03:28;;;;;;;4.20;2.20;;;;;;;;;;5024492;28;20431;-81
2023/06/01 12:05:56;;;;;;;7.27;2.30;;;;;;;;;;5031978;28;20456;-81
2023/06/01 12:11:19;;;;;;;8.77;2.77;;;;;;;;;;5024160;28;21977;-80
2023/06/01 12:13:48;;;;;;;5.47;2.00;;;;;;;;;;5032366;28;20467;-78
2023/06/01 12:16:17;;;;;;;9.43;2.13;;;;;;;;;;5031122;28;20572;-81
2023/06/01 12:18:45;;;;;;;5.17;2.17;;;;;;;;;;5039979;28;20549;-79
2023/06/01 12:21:16;;;;;;;6.70;2.50;;;;;;;;;;5021156;28;20459;-81
2023/06/01 12:23:44;;;;;;;9.53;2.17;;;;;;;;;;5035642;28;20466;-79
2023/06/01 12:26:12;;;;;;;5.57;2.00;;;;;;;;;;5045905;28;20474;-79
2023/06/01 12:28:55;;;;;;;8.07;2.43;;;;;;;;;;5038406;28;20517;-82
2023/06/01 12:31:25;;;;;;;6.90;2.50;;;;;;;;;;5036824;28;20482;-81
2023/06/01 12:33:56;;;;;;;9.33;2.40;;;;;;;;;;5034609;28;20459;-81
2023/06/01 12:36:34;;;;;;;10.63;2.50;;;;;;;;;;5027886;28;20522;-82
2023/06/01 12:39:03;;;;;;;8.53;3.10;;;;;;;;;;5044713;28;20459;-81
2023/06/01 12:41:32;;;;;;;11.93;3.03;;;;;;;;;;5042956;28;20474;-81
2023/06/01 12:44:01;;;;;;;5.83;2.10;;;;;;;;;;5032220;28;20460;-84
2023/06/01 12:46:29;;;;;;;8.23;2.60;;;;;;;;;;5028905;28;20452;-82
2023/06/01 12:49:18;;;;;;;3.70;1.73;;;;;;;;;;5032769;28;21007;-81
2023/06/01 12:51:46;;;;;;;8.20;2.43;;;;;;;;;;5042603;28;20490;-82
2023/06/01 12:54:13;;;;;;;8.27;2.53;;;;;;;;;;5030263;28;20478;-83
2023/06/01 12:56:41;;;;;;;4.87;2.20;;;;;;;;;;5027782;28;20456;-80
2023/06/01 12:59:10;;;;;;;10.80;2.83;;;;;;;;;;5028581;28;20508;-81
2023/06/01 13:01:39;;;;;;;5.13;2.43;;;;;;;;;;5042477;28;20459;-79
2023/06/01 13:04:07;;;;;;;7.03;2.60;;;;;;;;;;5043058;28;20493;-81
2023/06/01 13:06:35;;;;;;;9.97;2.80;;;;;;;;;;5041025;28;20473;-81
2023/06/01 13:09:07;;;;;;;7.43;2.40;;;;;;;;;;5028707;28;20450;-81
2023/06/01 13:11:34;;;;;;;6.07;2.57;;;;;;;;;;5038267;28;20490;-82
2023/06/01 13:14:01;;;;;;;8.03;2.30;;;;;;;;;;5042709;28;20757;-82
2023/06/01 13:16:33;;;;;;;9.03;2.00;;;;;;;;;;5042786;28;20521;-81
2023/06/01 13:19:03;;;;;;;9.13;3.70;;;;;;;;;;5052550;28;20446;-82
2023/06/01 13:21:33;;;;;;;7.70;3.10;;;;;;;;;;5038443;28;20465;-82
2023/06/01 13:24:01;;;;;;;3.17;1.67;;;;;;;;;;5043317;28;20454;-81
2023/06/01 13:26:30;;;;;;;12.97;2.57;;;;;;;;;;5042375;28;20458;-81
2023/06/01 13:29:01;;;;;;;5.60;2.23;;;;;;;;;;5038722;28;20818;-81
2023/06/01 13:31:30;;;;;;;9.57;1.77;;;;;;;;;;5039988;28;20486;-81
2023/06/01 13:34:00;;;;;;;9.93;2.40;;;;;;;;;;5019874;28;20472;-80
2023/06/01 13:36:29;;;;;;;6.20;1.80;;;;;;;;;;5025596;28;21030;-81
2023/06/01 13:39:00;;;;;;;13.40;3.13;;;;;;;;;;5031596;28;20458;-81
2023/06/01 13:41:28;;;;;;;6.50;2.10;;;;;;;;;;5030170;28;20554;-83
2023/06/01 13:43:56;;;;;;;10.67;2.17;;;;;;;;;;5041180;28;20554;-80
2023/06/01 13:46:23;;;;;;;4.57;2.00;;;;;;;;;;5037483;28;20481;-81
2023/06/01 13:48:51;;;;;;;12.30;2.77;;;;;;;;;;5033197;28;20526;-81
2023/06/01 13:51:22;;;;;;;8.20;2.67;;;;;;;;;;5039144;28;20525;-80
2023/06/01 13:53:53;;;;;;;5.77;2.03;;;;;;;;;;5037114;28;20454;-81
2023/06/01 13:56:29;;;;;;;8.90;2.10;;;;;;;;;;5036426;28;20557;-83
2023/06/01 13:58:57;;;;;;;5.57;1.80;;;;;;;;;;5035953;28;20462;-80
2023/06/01 14:01:27;;;;;;;5.13;2.10;;;;;;;;;;5013746;28;20566;-79
2023/06/01 14:04:02;;;;;;;4.43;2.03;;;;;;;;;;5032800;28;20756;-80
2023/06/01 14:06:34;;;;;;;7.00;1.70;;;;;;;;;;5042142;28;20447;-82
2023/06/01 14:09:07;;;;;;;6.30;1.77;;;;;;;;;;5035921;28;21097;-80
2023/06/01 14:11:40;;;;;;;8.97;1.80;;;;;;;;;;5022127;28;20495;-81
2023/06/01 14:14:07;;;;;;;9.17;3.07;;;;;;;;;;5018449;28;20919;-81
2023/06/01 14:16:35;;;;;;;4.00;1.67;;;;;;;;;;5033264;28;20447;-81
2023/06/01 14:19:05;;;;;;;8.27;1.87;;;;;;;;;;5036637;28;20447;-83
2023/06/01 14:21:35;;;;;;;5.10;1.60;;;;;;;;;;5033744;28;20467;-81
2023/06/01 14:24:03;;;;;;;9.17;2.37;;;;;;;;;;5036811;28;20467;-81
2023/06/01 14:26:33;;;;;;;8.70;1.57;;;;;;;;;;5038001;28;20505;-79
2023/06/01 14:29:01;;;;;;;6.93;2.13;;;;;;;;;;5039581;28;20467;-82
2023/06/01 14:31:28;;;;;;;4.83;1.60;;;;;;;;;;5040712;28;20921;-79
2023/06/01 14:33:55;;;;;;;6.77;1.33;;;;;;;;;;5040112;28;20452;-80
2023/06/01 14:36:24;;;;;;;6.43;1.50;;;;;;;;;;5043788;28;20458;-79
2023/06/01 14:38:53;;;;;;;3.70;1.63;;;;;;;;;;5046040;28;20705;-82
2023/06/01 14:41:22;;;;;;;4.50;1.63;;;;;;;;;;5032048;28;20753;-81
2023/06/01 14:43:51;;;;;;;4.33;1.57;;;;;;;;;;5045078;28;20459;-81
2023/06/01 14:46:25;;;;;;;5.87;1.90;;;;;;;;;;5044975;28;20455;-82
2023/06/01 14:48:53;;;;;;;5.83;1.70;;;;;;;;;;5045396;28;20444;-82
2023/06/01 14:51:28;;;;;;;10.20;2.20;;;;;;;;;;5047631;28;20479;-80
2023/06/01 14:53:58;;;;;;;3.23;1.30;;;;;;;;;;5042474;28;20463;-79
2023/06/01 14:56:25;;;;;;;2.73;0.83;;;;;;;;;;5044086;28;20766;-79
2023/06/01 14:58:53;;;;;;;3.23;1.20;;;;;;;;;;5044328;28;20485;-79
2023/06/01 15:01:21;;;;;;;4.20;1.30;;;;;;;;;;5039218;28;20455;-81
2023/06/01 15:03:48;;;;;;;5.63;2.20;;;;;;;;;;5041700;28;20443;-80
2023/06/01 15:06:15;;;;;;;8.47;2.27;;;;;;;;;;5038262;28;20450;-81
2023/06/01 15:08:43;;;;;;;12.20;2.40;;;;;;;;;;5022104;28;20467;-82
2023/06/01 15:11:14;;;;;;;7.00;1.57;;;;;;;;;;5021926;28;20463;-83
2023/06/01 15:13:42;;;;;;;5.70;1.63;;;;;;;;;;5021790;28;20456;-81
2023/06/01 15:16:10;;;;;;;3.70;1.57;;;;;;;;;;5031754;28;20486;-81